createdAt,value
2019-02-26T00:00:56.346Z,13.32
2019-02-26T00:03:26.407Z,12.78
2019-02-26T00:05:59.376Z,13.35
2019-02-26T00:08:31.719Z,16.10
2019-02-26T00:11:03.691Z,14.53
2019-02-26T00:13:40.701Z,16.05
2019-02-26T00:16:10.567Z,14.90
2019-02-26T00:18:40.235Z,14.90
2019-02-26T00:21:09.139Z,15.60
2019-02-26T00:23:38.016Z,13.70
2019-02-26T00:26:10.506Z,13.05
2019-02-26T00:28:39.155Z,13.28
2019-02-26T00:31:11.246Z,14.35
2019-02-26T00:33:40.173Z,13.75
2019-02-26T00:36:11.127Z,15.68
2019-02-26T00:38:44.367Z,13.08
2019-02-26T00:43:41.449Z,13.58
2019-02-26T00:46:15.118Z,13.93
2019-02-26T00:48:50.999Z,13.95
2019-02-26T00:51:21.064Z,13.10
2019-02-26T00:53:52.770Z,13.62
2019-02-26T00:56:25.331Z,14.55
2019-02-26T00:58:57.208Z,13.62
2019-02-26T01:01:27.406Z,13.38
2019-02-26T01:03:57.995Z,13.45
2019-02-26T01:06:29.425Z,13.43
2019-02-26T01:09:02.013Z,13.63
2019-02-26T01:11:31.228Z,13.05
2019-02-26T01:14:00.148Z,13.50
2019-02-26T01:16:28.711Z,12.55
2019-02-26T01:19:02.130Z,14.55
2019-02-26T01:24:08.608Z,16.30
2019-02-26T01:29:09.726Z,13.20
2019-02-26T01:31:40.473Z,13.65
2019-02-26T01:34:11.552Z,14.58
2019-02-26T01:36:49.500Z,16.25
2019-02-26T01:39:21.573Z,13.53
2019-02-26T01:41:56.365Z,13.55
2019-02-26T01:44:30.429Z,12.53
2019-02-26T01:47:02.589Z,13.45
2019-02-26T01:49:32.824Z,15.15
2019-02-26T01:52:03.558Z,12.82
2019-02-26T01:54:37.422Z,12.25
2019-02-26T01:57:08.650Z,13.15
2019-02-26T01:59:40.488Z,13.45
2019-02-26T02:02:12.186Z,14.20
2019-02-26T02:04:43.464Z,15.63
2019-02-26T02:07:12.098Z,16.55
2019-02-26T02:09:50.709Z,17.62
2019-02-26T02:12:17.195Z,17.48
2019-02-26T02:14:49.063Z,18.23
2019-02-26T02:17:18.288Z,16.42
2019-02-26T02:19:47.181Z,15.08
2019-02-26T02:22:21.763Z,16.60
2019-02-26T02:24:55.606Z,16.25
2019-02-26T02:29:57.810Z,14.65
2019-02-26T02:32:29.828Z,15.00
2019-02-26T02:35:03.447Z,15.80
2019-02-26T02:37:32.378Z,14.53
2019-02-26T02:40:01.837Z,14.60
2019-02-26T02:42:34.736Z,16.45
2019-02-26T02:45:05.238Z,15.30
2019-02-26T02:47:37.011Z,16.77
2019-02-26T02:50:27.036Z,14.93
2019-02-26T02:52:56.841Z,16.00
2019-02-26T02:55:26.822Z,16.87
2019-02-26T02:57:59.899Z,14.83
2019-02-26T03:00:28.748Z,14.33
2019-02-26T03:03:00.795Z,13.80
2019-02-26T03:05:32.087Z,15.55
2019-02-26T03:08:00.760Z,14.87
2019-02-26T03:10:36.772Z,14.68
2019-02-26T03:13:06.599Z,14.63
2019-02-26T03:15:35.916Z,14.87
2019-02-26T03:18:07.177Z,13.58
2019-02-26T03:20:39.933Z,13.93
2019-02-26T03:23:09.873Z,14.95
2019-02-26T03:25:41.591Z,15.83
2019-02-26T03:28:37.086Z,15.72
2019-02-26T03:31:09.737Z,16.40
2019-02-26T03:33:41.520Z,16.17
2019-02-26T03:36:14.003Z,15.18
2019-02-26T03:38:44.040Z,15.27
2019-02-26T03:41:16.614Z,14.95
2019-02-26T03:43:45.078Z,15.80
2019-02-26T03:46:15.090Z,14.63
2019-02-26T03:48:44.035Z,14.60
2019-02-26T03:51:17.892Z,14.55
2019-02-26T03:53:45.627Z,16.52
2019-02-26T03:56:18.411Z,14.35
2019-02-26T03:58:56.999Z,15.20
2019-02-26T04:01:26.898Z,14.60
2019-02-26T04:03:57.108Z,13.22
2019-02-26T04:06:26.183Z,12.73
2019-02-26T04:08:58.528Z,15.75
2019-02-26T04:11:30.575Z,18.10
2019-02-26T04:13:59.865Z,15.83
2019-02-26T04:16:29.875Z,19.32
2019-02-26T04:18:59.385Z,19.37
2019-02-26T04:22:05.314Z,15.65
2019-02-26T04:24:39.008Z,18.17
2019-02-26T04:27:47.521Z,17.02
2019-02-26T04:30:54.141Z,17.57
2019-02-26T04:34:04.302Z,16.05
2019-02-26T04:37:04.763Z,15.95
2019-02-26T04:39:48.446Z,14.87
2019-02-26T04:42:59.540Z,15.78
2019-02-26T04:46:13.440Z,14.60
2019-02-26T04:48:43.621Z,17.00
2019-02-26T04:51:13.137Z,16.35
2019-02-26T04:53:45.169Z,17.30
2019-02-26T04:56:15.071Z,17.75
2019-02-26T04:58:47.795Z,14.38
2019-02-26T05:01:19.316Z,17.80
2019-02-26T05:03:53.999Z,17.05
2019-02-26T05:06:24.951Z,18.87
2019-02-26T05:08:59.602Z,20.35
2019-02-26T05:11:35.878Z,17.48
2019-02-26T05:14:09.028Z,16.62
2019-02-26T05:16:43.533Z,17.67
2019-02-26T05:19:13.573Z,16.15
2019-02-26T05:21:44.096Z,15.90
2019-02-26T05:24:15.731Z,20.32
2019-02-26T05:26:46.508Z,21.40
2019-02-26T05:29:17.096Z,20.68
2019-02-26T05:31:51.352Z,24.40
2019-02-26T05:34:22.957Z,23.87
2019-02-26T05:36:52.571Z,21.77
2019-02-26T05:39:23.114Z,21.93
2019-02-26T05:41:57.906Z,19.52
2019-02-26T05:44:29.044Z,18.00
2019-02-26T05:47:01.728Z,17.47
2019-02-26T05:49:33.842Z,22.25
2019-02-26T05:52:01.642Z,19.60
2019-02-26T05:54:32.658Z,21.77
2019-02-26T05:57:06.490Z,20.75
2019-02-26T05:59:41.978Z,19.23
2019-02-26T06:02:21.516Z,18.30
2019-02-26T06:04:49.827Z,19.75
2019-02-26T06:07:22.039Z,19.70
2019-02-26T06:09:53.747Z,20.43
2019-02-26T06:12:24.323Z,20.73
2019-02-26T06:14:53.985Z,19.87
2019-02-26T06:17:24.621Z,20.52
2019-02-26T06:19:54.435Z,22.65
2019-02-26T06:22:27.182Z,18.00
2019-02-26T06:24:59.546Z,21.40
2019-02-26T06:27:30.370Z,23.77
2019-02-26T06:30:03.311Z,26.90
2019-02-26T06:32:32.868Z,25.20
2019-02-26T06:35:01.740Z,29.42
2019-02-26T06:37:31.325Z,30.27
2019-02-26T06:40:07.475Z,23.50
2019-02-26T06:42:41.083Z,21.85
2019-02-26T06:45:13.250Z,23.65
2019-02-26T06:47:41.598Z,24.82
2019-02-26T06:50:12.934Z,23.52
2019-02-26T06:52:47.245Z,23.95
2019-02-26T06:55:15.150Z,22.62
2019-02-26T06:57:52.849Z,23.35
2019-02-26T07:00:23.856Z,22.25
2019-02-26T07:02:52.915Z,21.33
2019-02-26T07:05:26.819Z,20.43
2019-02-26T07:07:56.981Z,20.62
2019-02-26T07:10:31.388Z,19.67
2019-02-26T07:13:02.062Z,20.82
2019-02-26T07:15:31.272Z,21.35
2019-02-26T07:18:04.349Z,19.80
2019-02-26T07:20:34.029Z,20.10
2019-02-26T07:23:10.486Z,18.65
2019-02-26T07:25:44.040Z,18.12
2019-02-26T07:28:15.249Z,17.48
2019-02-26T07:30:46.959Z,16.40
2019-02-26T07:33:16.909Z,17.52
2019-02-26T07:35:47.946Z,17.23
2019-02-26T07:38:20.607Z,16.05
2019-02-26T07:40:49.751Z,15.80
2019-02-26T07:43:22.478Z,15.65
2019-02-26T07:45:51.386Z,15.28
2019-02-26T07:48:23.811Z,16.48
2019-02-26T07:50:59.413Z,16.97
2019-02-26T07:53:32.554Z,16.62
2019-02-26T07:56:04.521Z,16.07
2019-02-26T07:58:35.974Z,17.92
2019-02-26T08:01:06.011Z,18.48
2019-02-26T08:03:34.548Z,18.05
2019-02-26T08:06:09.225Z,19.05
2019-02-26T08:08:41.524Z,18.17
2019-02-26T08:11:14.896Z,17.35
2019-02-26T08:13:51.707Z,16.20
2019-02-26T08:16:23.061Z,18.73
2019-02-26T08:18:52.192Z,15.45
2019-02-26T08:21:27.215Z,16.17
2019-02-26T08:23:58.284Z,17.70
2019-02-26T08:26:31.474Z,16.80
2019-02-26T08:29:02.501Z,16.60
2019-02-26T08:31:32.106Z,16.02
2019-02-26T08:34:04.367Z,19.62
2019-02-26T08:36:33.473Z,16.32
2019-02-26T08:39:04.005Z,15.78
2019-02-26T08:41:33.001Z,16.27
2019-02-26T08:44:02.108Z,16.02
2019-02-26T08:46:30.986Z,17.77
2019-02-26T08:49:08.258Z,17.85
2019-02-26T08:51:33.799Z,17.10
2019-02-26T08:54:04.022Z,18.85
2019-02-26T08:56:34.284Z,19.30
2019-02-26T08:59:10.186Z,17.10
2019-02-26T09:01:42.316Z,17.65
2019-02-26T09:04:12.279Z,17.20
2019-02-26T09:06:43.826Z,16.32
2019-02-26T09:09:12.732Z,15.58
2019-02-26T09:11:43.058Z,15.95
2019-02-26T09:14:16.708Z,16.23
2019-02-26T09:16:47.698Z,16.30
2019-02-26T09:19:17.125Z,15.13
2019-02-26T09:21:52.404Z,16.02
2019-02-26T09:24:21.466Z,15.43
2019-02-26T09:26:52.686Z,15.38
2019-02-26T09:29:23.706Z,17.20
2019-02-26T09:31:52.562Z,16.37
2019-02-26T09:34:21.120Z,15.95
2019-02-26T09:36:53.040Z,15.48
2019-02-26T09:39:24.376Z,14.25
2019-02-26T09:41:59.330Z,15.08
2019-02-26T09:44:31.443Z,14.60
2019-02-26T09:47:05.388Z,14.85
2019-02-26T09:49:44.150Z,14.73
2019-02-26T09:52:15.238Z,15.70
2019-02-26T09:54:46.347Z,15.83
2019-02-26T09:57:17.605Z,15.90
2019-02-26T09:59:52.103Z,14.70
2019-02-26T10:02:22.312Z,14.58
2019-02-26T10:04:54.440Z,14.87
2019-02-26T10:07:28.385Z,16.27
2019-02-26T10:09:59.832Z,15.35
2019-02-26T10:12:30.297Z,15.55
2019-02-26T10:15:04.714Z,15.40
2019-02-26T10:17:35.776Z,14.57
2019-02-26T10:20:10.061Z,14.53
2019-02-26T10:22:42.329Z,14.53
2019-02-26T10:25:11.380Z,15.93
2019-02-26T10:27:45.534Z,15.28
2019-02-26T10:30:16.262Z,13.88
2019-02-26T10:32:49.398Z,16.02
2019-02-26T10:35:21.230Z,16.48
2019-02-26T10:37:52.394Z,16.05
2019-02-26T10:40:35.156Z,18.30
2019-02-26T10:43:00.391Z,15.72
2019-02-26T10:45:38.623Z,16.42
2019-02-26T10:48:09.437Z,17.52
2019-02-26T10:50:43.063Z,15.68
2019-02-26T10:53:16.148Z,14.50
2019-02-26T10:55:46.028Z,14.98
2019-02-26T10:58:17.724Z,14.68
2019-02-26T11:00:52.536Z,15.45
2019-02-26T11:03:20.575Z,15.28
2019-02-26T11:05:52.702Z,17.15
2019-02-26T11:08:25.655Z,15.83
2019-02-26T11:10:57.838Z,16.07
2019-02-26T11:13:26.565Z,17.17
2019-02-26T11:15:59.846Z,16.87
2019-02-26T11:18:31.428Z,16.42
2019-02-26T11:21:04.451Z,17.17
2019-02-26T11:23:34.541Z,18.45
2019-02-26T11:26:06.708Z,18.75
2019-02-26T11:28:40.501Z,18.27
2019-02-26T11:31:09.467Z,18.25
2019-02-26T11:33:42.004Z,18.35
2019-02-26T11:36:13.144Z,19.42
2019-02-26T11:38:46.925Z,19.02
2019-02-26T11:41:15.792Z,18.48
2019-02-26T11:43:48.336Z,19.50
2019-02-26T11:46:20.188Z,18.85
2019-02-26T11:48:54.712Z,19.15
2019-02-26T11:51:25.138Z,18.30
2019-02-26T11:53:56.335Z,20.12
2019-02-26T11:56:25.893Z,18.95
2019-02-26T11:58:56.719Z,19.87
2019-02-26T12:01:29.362Z,18.62
2019-02-26T12:04:03.527Z,19.00
2019-02-26T12:06:31.478Z,18.90
2019-02-26T12:09:02.656Z,18.27
2019-02-26T12:11:35.840Z,21.57
2019-02-26T12:14:10.908Z,17.95
2019-02-26T12:16:39.383Z,19.30
2019-02-26T12:19:10.781Z,18.67
2019-02-26T12:21:39.409Z,20.60
2019-02-26T12:24:14.693Z,19.45
2019-02-26T12:26:47.532Z,19.98
2019-02-26T12:29:16.654Z,20.60
2019-02-26T12:31:53.798Z,21.33
2019-02-26T12:34:26.070Z,19.55
2019-02-26T12:36:57.269Z,21.35
2019-02-26T12:39:31.202Z,21.20
2019-02-26T12:41:59.344Z,21.68
2019-02-26T12:44:29.116Z,20.82
2019-02-26T12:47:03.485Z,19.82
2019-02-26T12:49:38.395Z,21.42
2019-02-26T12:52:06.126Z,21.00
2019-02-26T12:54:37.823Z,20.00
2019-02-26T12:57:07.618Z,20.08
2019-02-26T12:59:41.526Z,20.43
2019-02-26T13:02:16.712Z,19.35
2019-02-26T13:04:48.058Z,20.85
2019-02-26T13:07:17.246Z,21.07
2019-02-26T13:09:50.541Z,19.92
2019-02-26T13:12:24.183Z,21.35
2019-02-26T13:14:54.593Z,18.80
2019-02-26T13:17:29.455Z,16.93
2019-02-26T13:20:05.069Z,16.75
2019-02-26T13:22:32.288Z,17.25
2019-02-26T13:25:03.654Z,17.30
2019-02-26T13:27:32.680Z,17.32
2019-02-26T13:30:03.279Z,16.60
2019-02-26T13:32:55.290Z,17.87
2019-02-26T13:35:08.290Z,16.73
2019-02-26T13:37:42.293Z,16.15
2019-02-26T13:40:13.519Z,15.53
2019-02-26T13:42:49.922Z,14.50
2019-02-26T13:45:49.832Z,15.30
2019-02-26T13:48:59.383Z,15.53
2019-02-26T13:52:11.614Z,17.45
2019-02-26T13:55:23.939Z,16.82
2019-02-26T13:58:24.027Z,17.77
2019-02-26T14:01:37.951Z,19.20
2019-02-26T14:04:35.800Z,17.07
2019-02-26T14:07:47.132Z,16.67
2019-02-26T14:10:16.672Z,16.23
2019-02-26T14:12:50.365Z,17.57
2019-02-26T14:15:22.369Z,16.73
2019-02-26T14:17:51.264Z,18.00
2019-02-26T14:20:22.852Z,17.55
2019-02-26T14:22:55.148Z,15.98
2019-02-26T14:25:25.275Z,18.35
2019-02-26T14:27:56.147Z,16.65
2019-02-26T14:30:28.233Z,18.25
2019-02-26T14:33:02.383Z,17.87
2019-02-26T14:35:33.285Z,17.20
2019-02-26T14:38:02.728Z,18.07
2019-02-26T14:40:33.160Z,18.48
2019-02-26T14:43:10.153Z,20.15
2019-02-26T14:45:38.878Z,18.77
2019-02-26T14:48:09.479Z,18.67
2019-02-26T14:50:40.568Z,17.70
2019-02-26T14:53:09.153Z,18.30
2019-02-26T14:55:38.191Z,17.48
2019-02-26T14:58:11.075Z,17.17
2019-02-26T15:00:39.814Z,19.43
2019-02-26T15:03:10.792Z,18.60
2019-02-26T15:05:40.938Z,17.32
2019-02-26T15:08:12.628Z,16.40
2019-02-26T15:10:43.565Z,16.52
2019-02-26T15:13:13.766Z,16.65
2019-02-26T15:15:42.703Z,16.87
2019-02-26T15:18:16.564Z,16.67
2019-02-26T15:20:48.574Z,15.58
2019-02-26T15:23:20.571Z,18.00
2019-02-26T15:25:54.344Z,17.00
2019-02-26T15:31:01.007Z,14.85
2019-02-26T15:33:34.477Z,14.05
2019-02-26T15:36:06.588Z,12.82
2019-02-26T15:38:37.238Z,12.90
2019-02-26T15:41:07.798Z,13.32
2019-02-26T15:43:40.052Z,13.15
2019-02-26T15:46:12.046Z,13.18
2019-02-26T15:49:24.654Z,12.95
2019-02-26T15:52:24.653Z,15.15
2019-02-26T15:55:30.366Z,21.80
2019-02-26T15:58:34.192Z,14.73
2019-02-26T16:01:55.479Z,14.83
2019-02-26T16:05:08.057Z,14.23
2019-02-26T16:08:06.387Z,12.37
2019-02-26T16:11:02.505Z,11.57
2019-02-26T16:13:35.349Z,11.95
2019-02-26T16:16:07.327Z,14.47
2019-02-26T16:18:38.356Z,15.00
2019-02-26T16:21:10.690Z,15.38
2019-02-26T16:23:40.190Z,14.80
2019-02-26T16:27:00.914Z,13.70
2019-02-26T16:30:08.432Z,16.35
2019-02-26T16:33:16.054Z,14.60
2019-02-26T16:36:17.785Z,13.10
2019-02-26T16:39:27.227Z,11.73
2019-02-26T16:42:24.305Z,10.48
2019-02-26T16:45:37.522Z,10.68
2019-02-26T16:48:33.809Z,10.78
2019-02-26T16:51:08.566Z,10.28
2019-02-26T16:53:40.424Z,10.50
2019-02-26T16:56:13.820Z,10.05
2019-02-26T16:58:42.364Z,10.05
2019-02-26T17:01:13.562Z,9.73
2019-02-26T17:03:45.005Z,9.83
2019-02-26T17:06:14.219Z,10.05
2019-02-26T17:08:44.685Z,9.70
2019-02-26T17:11:18.415Z,10.10
2019-02-26T17:13:50.786Z,9.33
2019-02-26T17:16:20.733Z,10.23
2019-02-26T17:18:51.501Z,19.77
2019-02-26T17:21:24.526Z,29.32
2019-02-26T17:23:54.938Z,50.17
2019-02-26T17:26:25.182Z,20.90
2019-02-26T17:28:55.615Z,16.75
2019-02-26T17:31:28.700Z,30.80
2019-02-26T17:34:00.266Z,14.78
2019-02-26T17:36:41.678Z,12.58
2019-02-26T17:39:16.149Z,11.85
2019-02-26T17:41:46.823Z,11.25
2019-02-26T17:44:16.047Z,9.98
2019-02-26T17:46:47.888Z,11.20
2019-02-26T17:49:18.061Z,11.88
2019-02-26T17:51:49.691Z,10.53
2019-02-26T17:54:23.965Z,11.20
2019-02-26T17:56:57.630Z,13.03
2019-02-26T17:59:33.235Z,12.00
2019-02-26T18:02:05.367Z,15.93
2019-02-26T18:04:35.296Z,28.32
2019-02-26T18:07:06.257Z,17.23
2019-02-26T18:09:37.779Z,16.48
2019-02-26T18:12:08.378Z,14.10
2019-02-26T18:14:41.833Z,12.20
2019-02-26T18:17:11.763Z,11.75
2019-02-26T18:19:40.606Z,12.60
2019-02-26T18:22:15.619Z,18.32
2019-02-26T18:24:48.073Z,13.53
2019-02-26T18:27:19.173Z,12.68
2019-02-26T18:29:52.916Z,12.85
2019-02-26T18:35:00.884Z,19.23
2019-02-26T18:37:29.837Z,15.72
2019-02-26T18:40:01.312Z,14.55
2019-02-26T18:42:33.695Z,13.62
2019-02-26T18:45:05.739Z,14.45
2019-02-26T18:47:37.166Z,16.57
2019-02-26T18:50:10.243Z,14.43
2019-02-26T18:52:43.035Z,13.78
2019-02-26T18:55:17.971Z,13.03
2019-02-26T18:57:48.192Z,14.40
2019-02-26T19:00:42.265Z,14.15
2019-02-26T19:03:13.899Z,13.85
2019-02-26T19:05:44.119Z,13.90
2019-02-26T19:08:18.956Z,16.57
2019-02-26T19:10:47.766Z,16.52
2019-02-26T19:13:18.177Z,19.75
2019-02-26T19:15:55.012Z,24.98
2019-02-26T19:18:27.379Z,26.33
2019-02-26T19:21:00.935Z,22.80
2019-02-26T19:23:35.262Z,18.12
2019-02-26T19:26:07.416Z,20.80
2019-02-26T19:28:47.048Z,19.30
2019-02-26T19:31:18.866Z,23.67
2019-02-26T19:33:54.810Z,23.75
2019-02-26T19:36:27.555Z,22.67
2019-02-26T19:39:00.875Z,18.05
2019-02-26T19:41:38.496Z,19.70
2019-02-26T19:44:09.102Z,22.42
2019-02-26T19:46:49.384Z,20.30
2019-02-26T19:49:26.865Z,21.00
2019-02-26T19:51:59.499Z,21.10
2019-02-26T19:54:32.761Z,21.40
2019-02-26T19:57:03.653Z,22.05
2019-02-26T19:59:34.281Z,21.57
2019-02-26T20:02:04.640Z,23.22
2019-02-26T20:04:43.087Z,21.65
2019-02-26T20:07:17.045Z,23.05
2019-02-26T20:09:47.177Z,21.73
2019-02-26T20:12:20.795Z,24.45
2019-02-26T20:17:28.562Z,24.60
2019-02-26T20:20:04.945Z,25.12
2019-02-26T20:22:35.991Z,25.65
2019-02-26T20:25:09.568Z,23.38
2019-02-26T20:30:13.070Z,26.77
2019-02-26T20:32:43.945Z,23.80
2019-02-26T20:35:13.100Z,21.42
2019-02-26T20:37:45.071Z,20.88
2019-02-26T20:40:19.134Z,23.92
2019-02-26T20:42:48.724Z,24.72
2019-02-26T20:45:22.669Z,23.47
2019-02-26T20:47:52.351Z,21.10
2019-02-26T20:50:25.664Z,23.65
2019-02-26T20:52:59.066Z,23.18
2019-02-26T20:55:34.278Z,21.65
2019-02-26T20:58:06.281Z,22.17
2019-02-26T21:00:42.228Z,22.35
2019-02-26T21:03:09.363Z,23.95
2019-02-26T21:05:44.773Z,21.62
2019-02-26T21:08:17.096Z,23.15
2019-02-26T21:10:48.103Z,19.95
2019-02-26T21:13:17.621Z,22.52
2019-02-26T21:15:49.979Z,24.05
2019-02-26T21:18:22.073Z,20.70
2019-02-26T21:20:52.598Z,20.40
2019-02-26T21:23:27.410Z,19.95
2019-02-26T21:25:57.697Z,19.07
2019-02-26T21:28:28.850Z,19.62
2019-02-26T21:30:59.934Z,19.55
2019-02-26T21:33:30.809Z,18.62
2019-02-26T21:36:01.179Z,19.30
2019-02-26T21:38:38.585Z,19.15
2019-02-26T21:41:06.900Z,18.27
2019-02-26T21:43:41.035Z,17.73
2019-02-26T21:46:15.001Z,18.10
2019-02-26T21:48:46.581Z,18.12
2019-02-26T21:51:20.485Z,17.37
2019-02-26T21:53:53.203Z,17.92
2019-02-26T21:56:26.528Z,17.10
2019-02-26T21:58:59.721Z,18.30
2019-02-26T22:01:34.252Z,18.67
2019-02-26T22:04:05.414Z,18.62
2019-02-26T22:06:34.988Z,19.87
2019-02-26T22:09:07.441Z,19.92
2019-02-26T22:11:39.223Z,18.37
2019-02-26T22:14:14.488Z,18.15
2019-02-26T22:16:44.921Z,18.23
2019-02-26T22:19:15.093Z,16.90
2019-02-26T22:21:52.141Z,18.70
2019-02-26T22:24:24.132Z,18.12
2019-02-26T22:26:53.468Z,18.32
2019-02-26T22:29:22.026Z,18.42
2019-02-26T22:31:52.792Z,19.57
2019-02-26T22:34:24.742Z,18.45
2019-02-26T22:37:00.067Z,19.15
2019-02-26T22:39:30.543Z,18.27
2019-02-26T22:42:08.037Z,17.73
2019-02-26T22:44:41.928Z,17.55
2019-02-26T22:47:14.582Z,17.60
2019-02-26T22:49:47.013Z,16.77
2019-02-26T22:52:19.421Z,16.95
2019-02-26T22:54:49.672Z,17.98
2019-02-26T22:57:21.320Z,17.45
2019-02-26T22:59:54.994Z,16.30
2019-02-26T23:02:31.852Z,16.97
2019-02-26T23:05:04.022Z,16.85
2019-02-26T23:07:39.150Z,16.00
2019-02-26T23:10:05.558Z,16.67
2019-02-26T23:12:35.973Z,15.78
2019-02-26T23:15:06.878Z,15.88
2019-02-26T23:17:38.562Z,16.05
2019-02-26T23:20:09.895Z,14.20
2019-02-26T23:22:39.833Z,16.35
2019-02-26T23:25:10.008Z,15.20
2019-02-26T23:27:39.060Z,15.50
2019-02-26T23:30:13.370Z,15.80
2019-02-26T23:32:45.569Z,15.45
2019-02-26T23:35:17.196Z,15.13
2019-02-26T23:37:50.749Z,15.78
2019-02-26T23:40:21.769Z,15.60
2019-02-26T23:42:52.506Z,17.02
2019-02-26T23:45:28.080Z,16.85
2019-02-26T23:47:59.262Z,15.15
2019-02-26T23:50:31.247Z,16.07
2019-02-26T23:53:03.031Z,16.87
2019-02-26T23:55:33.841Z,15.78
2019-02-26T23:58:06.656Z,16.75
